createdAt,value
2022-08-11T00:02:17.802Z,17.8
2022-08-11T00:05:13.473Z,17.9
2022-08-11T00:08:04.577Z,17.9
2022-08-11T00:10:52.338Z,17.9
2022-08-11T00:13:43.810Z,17.9
2022-08-11T00:16:34.721Z,17.9
2022-08-11T00:20:15.413Z,17.9
2022-08-11T00:23:05.212Z,17.9
2022-08-11T00:25:55.611Z,17.9
2022-08-11T00:28:44.110Z,17.9
2022-08-11T00:31:31.600Z,17.9
2022-08-11T00:34:22.016Z,17.9
2022-08-11T00:37:13.114Z,18
2022-08-11T00:40:06.544Z,18
2022-08-11T00:43:03.726Z,18
2022-08-11T00:46:04.210Z,18
2022-08-11T00:49:01.280Z,18
2022-08-11T00:52:05.451Z,18
2022-08-11T00:55:08.998Z,18
2022-08-11T00:58:58.470Z,17.9
2022-08-11T01:02:11.893Z,17.9
2022-08-11T01:05:03.845Z,17.9
2022-08-11T01:08:14.377Z,17.9
2022-08-11T01:11:23.214Z,17.9
2022-08-11T01:14:33.829Z,17.9
2022-08-11T01:17:57.734Z,17.9
2022-08-11T01:21:38.430Z,17.9
2022-08-11T01:25:09.872Z,17.9
2022-08-11T01:28:40.942Z,17.9
2022-08-11T01:32:18.831Z,17.8
2022-08-11T01:36:00.693Z,17.8
2022-08-11T01:39:14.168Z,17.7
2022-08-11T01:43:04.663Z,17.8
2022-08-11T01:47:21.303Z,17.7
2022-08-11T01:50:51.141Z,17.7
2022-08-11T01:53:50.759Z,17.7
2022-08-11T01:56:47.206Z,17.7
2022-08-11T01:59:59.367Z,17.6
2022-08-11T02:02:54.491Z,17.6
2022-08-11T02:05:55.230Z,17.6
2022-08-11T02:09:39.059Z,17.6
2022-08-11T02:14:14.935Z,17.6
2022-08-11T02:17:12.918Z,17.6
2022-08-11T02:20:05.673Z,17.6
2022-08-11T02:24:05.622Z,17.6
2022-08-11T02:27:02.934Z,17.5
2022-08-11T02:29:59.349Z,17.5
2022-08-11T02:32:52.072Z,17.4
2022-08-11T02:36:23.910Z,17.4
2022-08-11T02:39:27.980Z,17.4
2022-08-11T02:42:42.181Z,17.4
2022-08-11T02:45:42.622Z,17.4
2022-08-11T02:48:40.399Z,17.3
2022-08-11T02:52:10.449Z,17.2
2022-08-11T02:55:09.820Z,17.1
2022-08-11T02:58:42.907Z,17
2022-08-11T03:02:34.940Z,16.8
2022-08-11T03:05:41.949Z,16.7
2022-08-11T03:08:54.886Z,16.7
2022-08-11T03:11:51.765Z,16.6
2022-08-11T03:15:21.264Z,16.5
2022-08-11T03:19:30.426Z,16.3
2022-08-11T03:22:31.439Z,16.3
2022-08-11T03:25:25.606Z,16.2
2022-08-11T03:28:19.462Z,16.1
2022-08-11T03:31:15.283Z,16.1
2022-08-11T03:34:12.441Z,16
2022-08-11T03:37:17.019Z,16
2022-08-11T03:40:36.699Z,15.9
2022-08-11T03:44:09.284Z,15.8
2022-08-11T03:47:13.402Z,15.8
2022-08-11T03:50:17.223Z,15.7
2022-08-11T03:53:18.505Z,15.6
2022-08-11T03:56:47.581Z,15.6
2022-08-11T04:00:25.079Z,15.5
2022-08-11T04:03:57.565Z,15.5
2022-08-11T04:07:35.609Z,15.5
2022-08-11T04:10:58.232Z,15.5
2022-08-11T04:14:09.142Z,15.5
2022-08-11T04:17:51.160Z,15.5
2022-08-11T04:21:03.354Z,15.5
2022-08-11T04:24:13.086Z,15.5
2022-08-11T04:27:44.975Z,15.5
2022-08-11T04:31:10.094Z,15.5
2022-08-11T04:34:19.596Z,15.6
2022-08-11T04:37:35.112Z,15.7
2022-08-11T04:40:51.358Z,15.8
2022-08-11T04:46:05.091Z,15.9
2022-08-11T04:49:08.308Z,15.9
2022-08-11T04:52:52.722Z,15.9
2022-08-11T04:56:30.975Z,15.9
2022-08-11T04:59:57.275Z,16
2022-08-11T05:03:23.831Z,16.1
2022-08-11T05:06:30.853Z,16.1
2022-08-11T05:09:51.698Z,16.2
2022-08-11T05:12:55.555Z,16.3
2022-08-11T05:29:55.253Z,16.6
2022-08-11T05:33:19.667Z,16.7
2022-08-11T05:36:47.913Z,16.7
2022-08-11T05:39:39.640Z,16.8
2022-08-11T05:43:05.268Z,16.9
2022-08-11T05:46:30.065Z,16.9
2022-08-11T05:49:58.211Z,17
2022-08-11T05:53:17.705Z,17.1
2022-08-11T05:56:38.048Z,17.1
2022-08-11T05:59:33.211Z,17.2
2022-08-11T06:02:21.470Z,17.2
2022-08-11T06:05:09.370Z,17.3
2022-08-11T06:07:58.839Z,17.3
2022-08-11T06:10:47.818Z,17.4
2022-08-11T06:13:36.768Z,17.5
2022-08-11T06:16:29.669Z,17.6
2022-08-11T06:19:17.539Z,17.6
2022-08-11T06:22:09.471Z,17.7
2022-08-11T06:24:58.297Z,17.8
2022-08-11T06:27:47.852Z,17.9
2022-08-11T06:30:41.497Z,17.9
2022-08-11T06:33:31.246Z,18.1
2022-08-11T06:36:24.392Z,18.2
2022-08-11T06:39:19.406Z,18.3
2022-08-11T06:42:12.755Z,18.3
2022-08-11T06:45:17.606Z,18.4
2022-08-11T06:48:13.405Z,18.5
2022-08-11T06:51:03.720Z,18.6
2022-08-11T06:54:04.843Z,18.8
2022-08-11T06:57:28.369Z,18.9
2022-08-11T07:01:30.373Z,19.1
2022-08-11T07:04:31.112Z,19.1
2022-08-11T07:07:28.496Z,19.2
2022-08-11T07:11:32.083Z,19.4
2022-08-11T07:16:10.892Z,19.5
2022-08-11T07:19:07.157Z,19.6
2022-08-11T07:22:26.828Z,19.7
2022-08-11T07:25:49.391Z,19.8
2022-08-11T07:29:10.767Z,19.9
2022-08-11T07:31:59.512Z,20.1
2022-08-11T07:34:56.601Z,20.2
2022-08-11T07:38:01.431Z,20.3
2022-08-11T07:40:53.128Z,20.4
2022-08-11T07:43:44.488Z,20.5
2022-08-11T07:46:37.345Z,20.7
2022-08-11T07:49:58.015Z,20.8
2022-08-11T07:53:17.751Z,21
2022-08-11T07:56:07.161Z,21.1
2022-08-11T07:59:06.326Z,21.2
2022-08-11T08:02:29.108Z,21.4
2022-08-11T08:05:50.006Z,21.5
2022-08-11T08:09:10.097Z,21.7
2022-08-11T08:12:31.020Z,21.8
2022-08-11T08:15:52.671Z,21.9
2022-08-11T08:19:13.585Z,22
2022-08-11T08:22:37.447Z,22
2022-08-11T08:25:27.191Z,22.1
2022-08-11T08:28:17.579Z,22.2
2022-08-11T08:31:06.799Z,22.4
2022-08-11T08:33:54.413Z,22.5
2022-08-11T08:36:42.009Z,22.6
2022-08-11T08:39:32.187Z,22.7
2022-08-11T08:42:22.541Z,22.7
2022-08-11T08:45:13.266Z,22.8
2022-08-11T08:48:03.045Z,22.8
2022-08-11T08:50:56.224Z,22.9
2022-08-11T08:54:26.916Z,23
2022-08-11T08:57:18.844Z,23.1
2022-08-11T09:00:09.018Z,23.2
2022-08-11T09:03:17.496Z,23.2
2022-08-11T09:06:26.824Z,23.3
2022-08-11T09:09:17.652Z,23.4
2022-08-11T09:12:07.132Z,23.6
2022-08-11T09:14:56.760Z,23.8
2022-08-11T09:17:46.808Z,24
2022-08-11T09:20:40.892Z,24.2
2022-08-11T09:27:18.749Z,24.3
2022-08-11T09:30:07.428Z,24.5
2022-08-11T09:32:57.737Z,24.6
2022-08-11T09:35:49.855Z,24.6
2022-08-11T09:38:39.271Z,24.7
2022-08-11T09:42:03.124Z,24.9
2022-08-11T09:44:52.711Z,25.1
2022-08-11T09:47:40.478Z,25.4
2022-08-11T09:50:30.134Z,25.7
2022-08-11T09:53:36.535Z,26.1
2022-08-11T09:56:29.693Z,26.3
2022-08-11T10:01:26.894Z,26.4
2022-08-11T10:04:20.179Z,26.4
2022-08-11T10:07:15.898Z,26.6
2022-08-11T10:10:06.233Z,26.8
2022-08-11T10:12:55.796Z,27.1
2022-08-11T10:16:02.359Z,27.3
2022-08-11T10:19:03.005Z,27.6
2022-08-11T10:21:51.615Z,27.9
2022-08-11T10:25:12.032Z,28.2
2022-08-11T10:28:50.015Z,28.6
2022-08-11T10:36:44.722Z,29.3
2022-08-11T10:39:33.073Z,29.6
2022-08-11T10:42:35.424Z,29.8
2022-08-11T10:45:47.722Z,29.8
2022-08-11T10:49:07.521Z,29.9
2022-08-11T10:51:58.764Z,30.2
2022-08-11T10:55:18.697Z,30.3
2022-08-11T10:58:38.448Z,30.5
2022-08-11T11:01:34.602Z,30.7
2022-08-11T11:04:27.120Z,31
2022-08-11T11:07:29.164Z,31.4
2022-08-11T11:10:24.082Z,31.7
2022-08-11T11:13:11.823Z,31.9
2022-08-11T11:16:31.033Z,32.2
2022-08-11T11:19:52.048Z,32.3
2022-08-11T11:22:45.312Z,32.4
2022-08-11T11:25:37.107Z,32.7
2022-08-11T11:28:51.276Z,33.1
2022-08-11T11:31:56.212Z,33.3
2022-08-11T11:35:00.367Z,33
2022-08-11T11:38:04.729Z,32.6
2022-08-11T11:40:54.369Z,32.7
2022-08-11T11:44:15.559Z,33
2022-08-11T11:47:04.940Z,33.4
2022-08-11T11:49:53.635Z,33.6
2022-08-11T11:52:41.949Z,33.8
2022-08-11T11:55:30.220Z,34.1
2022-08-11T11:58:18.819Z,34.2
2022-08-11T12:01:38.874Z,33.6
2022-08-11T12:04:29.110Z,33
2022-08-11T12:07:17.751Z,32.8
2022-08-11T12:10:37.661Z,32.8
2022-08-11T12:13:28.852Z,33.2
2022-08-11T12:16:36.170Z,33.4
2022-08-11T12:19:26.601Z,33.8
2022-08-11T12:22:14.823Z,34.2
2022-08-11T12:25:35.016Z,34.5
2022-08-11T12:28:54.685Z,34.9
2022-08-11T12:31:45.737Z,35.2
2022-08-11T12:34:34.679Z,35.5
2022-08-11T12:37:22.402Z,35.8
2022-08-11T12:40:43.803Z,36
2022-08-11T12:44:32.320Z,36.4
2022-08-11T12:48:07.962Z,36.2
2022-08-11T12:52:29.126Z,36.3
2022-08-11T12:55:21.813Z,36.6
2022-08-11T13:01:01.840Z,37.2
2022-08-11T13:04:21.350Z,37.4
2022-08-11T13:07:49.888Z,37.6
2022-08-11T13:10:39.144Z,37.7
2022-08-11T13:13:59.337Z,37.8
2022-08-11T13:16:48.894Z,38
2022-08-11T13:20:09.931Z,38.1
2022-08-11T13:23:01.994Z,38.4
2022-08-11T13:25:50.934Z,38.6
2022-08-11T13:28:39.965Z,38.8
2022-08-11T13:31:27.582Z,39.1
2022-08-11T13:34:15.720Z,39.3
2022-08-11T13:37:05.712Z,39
2022-08-11T13:39:56.802Z,38.3
2022-08-11T13:42:46.562Z,37.6
2022-08-11T13:45:36.229Z,37.6
2022-08-11T13:48:24.465Z,37.6
2022-08-11T13:51:12.911Z,37.8
2022-08-11T13:54:18.754Z,37.9
2022-08-11T13:57:38.585Z,38.1
2022-08-11T14:00:56.381Z,38.4
2022-08-11T14:04:29.238Z,38.6
2022-08-11T14:07:25.522Z,38.7
2022-08-11T14:10:22.529Z,38.8
2022-08-11T14:13:14.266Z,38.8
2022-08-11T14:16:34.225Z,39
2022-08-11T14:19:27.515Z,39.1
2022-08-11T14:22:17.805Z,39.1
2022-08-11T14:25:06.892Z,39.2
2022-08-11T14:28:32.912Z,39.3
2022-08-11T14:31:22.564Z,39.4
2022-08-11T14:34:12.493Z,39.4
2022-08-11T14:37:03.449Z,39.6
2022-08-11T14:40:00.717Z,39.6
2022-08-11T14:50:05.033Z,39.2
2022-08-11T14:53:03.498Z,38.9
2022-08-11T14:55:53.825Z,38.7
2022-08-11T14:59:12.885Z,38.5
2022-08-11T15:02:00.756Z,38.5
2022-08-11T15:05:21.608Z,38.3
2022-08-11T15:08:10.096Z,38.2
2022-08-11T15:11:00.587Z,37.9
2022-08-11T15:14:56.074Z,37.5
2022-08-11T15:18:15.963Z,36.9
2022-08-11T15:21:05.544Z,36.8
2022-08-11T15:24:25.241Z,37
2022-08-11T15:27:15.758Z,37
2022-08-11T15:30:40.310Z,37.1
2022-08-11T15:34:01.341Z,37.3
2022-08-11T15:37:24.190Z,37.5
2022-08-11T15:40:31.085Z,37.6
2022-08-11T15:45:40.880Z,38.1
2022-08-11T15:48:35.177Z,38.4
2022-08-11T15:51:30.933Z,38.6
2022-08-11T15:54:23.119Z,38.7
2022-08-11T15:57:15.763Z,38.6
2022-08-11T16:06:55.940Z,36.5
2022-08-11T16:09:51.731Z,36
2022-08-11T16:12:44.927Z,35.5
2022-08-11T16:18:58.899Z,35.7
2022-08-11T16:21:49.672Z,36
2022-08-11T16:27:01.456Z,36.3
2022-08-11T16:30:04.430Z,36.7
2022-08-11T16:32:53.619Z,36.7
2022-08-11T16:35:43.600Z,36.7
2022-08-11T16:40:43.234Z,36.7
2022-08-11T16:43:34.829Z,36.7
2022-08-11T16:46:58.873Z,36.7
2022-08-11T16:49:52.598Z,36.7
2022-08-11T16:52:42.493Z,36.7
2022-08-11T16:55:51.494Z,36.6
2022-08-11T16:58:43.199Z,36.6
2022-08-11T17:02:07.648Z,36.4
2022-08-11T17:10:02.171Z,35.7
2022-08-11T17:13:32.973Z,35.5
2022-08-11T17:16:25.420Z,35.3
2022-08-11T17:19:17.080Z,34.8
2022-08-11T17:22:09.497Z,34.3
2022-08-11T17:25:29.309Z,33.7
2022-08-11T17:28:18.776Z,33.2
2022-08-11T17:31:17.769Z,32.7
2022-08-11T17:34:46.075Z,32
2022-08-11T17:38:08.906Z,31.5
2022-08-11T17:41:00.010Z,31.2
2022-08-11T17:44:21.427Z,30.7
2022-08-11T17:47:41.812Z,30.4
2022-08-11T17:51:02.043Z,30.1
2022-08-11T17:54:02.131Z,29.9
2022-08-11T17:57:38.400Z,29.7
2022-08-11T18:01:08.778Z,29.5
2022-08-11T18:03:59.677Z,29.3
2022-08-11T18:06:51.245Z,29.1
2022-08-11T18:09:39.918Z,28.9
2022-08-11T18:12:59.231Z,28.7
2022-08-11T18:16:18.801Z,28.5
2022-08-11T18:19:39.015Z,28.3
2022-08-11T18:22:58.202Z,28.1
2022-08-11T18:26:21.840Z,27.9
2022-08-11T18:29:42.471Z,27.7
2022-08-11T18:33:39.798Z,27.5
2022-08-11T18:37:09.479Z,27.2
2022-08-11T18:40:45.101Z,26.9
2022-08-11T18:44:08.027Z,26.7
2022-08-11T18:47:31.069Z,26.4
2022-08-11T18:51:04.483Z,26.2
2022-08-11T18:54:53.751Z,26
2022-08-11T18:58:15.405Z,25.8
2022-08-11T19:01:46.003Z,25.5
2022-08-11T19:05:08.151Z,25.3
2022-08-11T19:08:28.537Z,25.2
2022-08-11T19:11:52.682Z,25
2022-08-11T19:15:13.673Z,24.9
2022-08-11T19:18:34.513Z,24.8
2022-08-11T19:21:56.472Z,24.6
2022-08-11T19:25:19.913Z,24.5
2022-08-11T19:28:45.798Z,24.4
2022-08-11T19:32:07.403Z,24.3
2022-08-11T19:35:28.364Z,24.1
2022-08-11T19:38:48.883Z,24
2022-08-11T19:42:10.136Z,24
2022-08-11T19:45:31.896Z,23.8
2022-08-11T19:48:52.236Z,23.8
2022-08-11T19:52:13.775Z,23.7
2022-08-11T19:55:34.167Z,23.6
2022-08-11T19:58:55.758Z,23.5
2022-08-11T20:02:16.742Z,23.4
2022-08-11T20:05:36.998Z,23.3
2022-08-11T20:08:59.286Z,23.1
2022-08-11T20:12:20.260Z,23
2022-08-11T20:15:46.629Z,22.9
2022-08-11T20:19:08.468Z,22.8
2022-08-11T20:22:28.301Z,22.8
2022-08-11T20:25:48.661Z,22.6
2022-08-11T20:29:10.769Z,22.6
2022-08-11T20:32:30.507Z,22.6
2022-08-11T20:35:51.085Z,22.6
2022-08-11T20:39:11.439Z,22.6
2022-08-11T20:42:33.986Z,22.5
2022-08-11T20:45:57.377Z,22.5
2022-08-11T20:49:19.064Z,22.5
2022-08-11T20:52:42.184Z,22.4
2022-08-11T20:56:06.721Z,22.4
2022-08-11T20:59:27.725Z,22.3
2022-08-11T21:02:52.018Z,22.2
2022-08-11T21:06:13.464Z,22.1
2022-08-11T21:10:01.185Z,22
2022-08-11T21:13:29.923Z,21.8
2022-08-11T21:16:56.045Z,21.7
2022-08-11T21:20:20.615Z,21.5
2022-08-11T21:23:41.437Z,21.4
2022-08-11T21:27:03.800Z,21.3
2022-08-11T21:30:26.300Z,21.2
2022-08-11T21:33:47.998Z,21.2
2022-08-11T21:37:09.474Z,21.1
2022-08-11T21:40:32.994Z,21
2022-08-11T21:43:53.317Z,21
2022-08-11T21:47:17.328Z,20.9
2022-08-11T21:50:40.998Z,20.9
2022-08-11T21:54:00.657Z,20.8
2022-08-11T21:57:21.009Z,20.8
2022-08-11T22:00:41.243Z,20.8
2022-08-11T22:04:01.627Z,20.7
2022-08-11T22:07:22.489Z,20.6
2022-08-11T22:10:43.182Z,20.5
2022-08-11T22:14:07.773Z,20.4
2022-08-11T22:17:28.034Z,20.3
2022-08-11T22:20:47.672Z,20.2
2022-08-11T22:24:09.649Z,20.1
2022-08-11T22:27:29.552Z,20.1
2022-08-11T22:30:49.529Z,20
2022-08-11T22:34:10.881Z,19.9
2022-08-11T22:37:30.559Z,19.9
2022-08-11T22:40:52.072Z,19.8
2022-08-11T22:44:11.877Z,19.7
2022-08-11T22:47:38.312Z,19.7
2022-08-11T22:51:04.013Z,19.6
2022-08-11T22:54:24.330Z,19.5
2022-08-11T22:58:00.130Z,19.5
2022-08-11T23:01:21.814Z,19.4
2022-08-11T23:04:41.245Z,19.4
2022-08-11T23:08:01.005Z,19.4
2022-08-11T23:11:20.710Z,19.4
2022-08-11T23:14:40.253Z,19.3
2022-08-11T23:18:00.616Z,19.3
2022-08-11T23:21:20.272Z,19.2
2022-08-11T23:24:40.987Z,19.2
2022-08-11T23:28:00.364Z,19.1
2022-08-11T23:31:21.954Z,19
2022-08-11T23:35:04.738Z,18.9
2022-08-11T23:39:01.466Z,18.8
2022-08-11T23:42:21.061Z,18.8
2022-08-11T23:45:40.172Z,18.8
2022-08-11T23:48:59.165Z,18.7
2022-08-11T23:52:20.750Z,18.6
2022-08-11T23:55:41.734Z,18.5
2022-08-11T23:59:03.433Z,18.4
